Main page
METAR-TAF:

METAR-TAF

Airports :

Piešťany, Slovakia

Piešťany Airport

latitude: 48-37-30N, longitude: 017-49-43E, elevation: 163 m

Current weather observation

The report was made 33 minutes ago, at 02:30 UTC
Wind 3 kt from the Northeast
Temperature 8°C
Humidity 87%
Pressure 1024 hPa
Visibility 10 km or more

METAR: LZPP 280230Z AUTO 05003KT 9999 NCD 08/06 Q1024

Time: 05:03 (03:03 UTC)

Forecast

The report was made 10 hours and 3 minutes ago, at 17:00 UTC
Forecast valid from 27 at 18 UTC to 28 at 03 UTC
Wind 10 kt from the North/Northeast
Visibility 10 km or more
no clouds below 1500 m and no cumulonimbus
Becoming
from 27 at 20 UTC to 27 at 22 UTC
Wind 5 kt from the Northeast
Probability 30% :
Temporary
from 28 at 01 UTC to 28 at 03 UTC
Wind 2 kt from variable directions
Visibility: 6000 m

TAF: LZPP 271700Z 2718/2803 02010KT CAVOK BECMG 2720/2722 04005KT PROB30 TEMPO 2801/2803 VRB02KT 6000 NSC

Weather observations and forecasts of more than 4000 airports (METAR and TAF reports).

The available stations are represented by yellow and red dots on the map.

Hover mouse over dot to see the name of the station.

Then click to see weather observations and forecasts.

To change the map : click on the green buttons with a black cross to zoom in, on the green button with a dash to zoom out, or on the green arrows for adjacent maps.


METAR-TAF: